createdAt,value
2023-02-24T00:02:30.734Z,6.37
2023-02-24T00:06:30.785Z,6.37
2023-02-24T00:10:30.961Z,6.95
2023-02-24T00:14:31.140Z,6.62
2023-02-24T00:18:31.321Z,7.09
2023-02-24T00:22:31.534Z,6.60
2023-02-24T00:26:31.706Z,6.38
2023-02-24T00:30:31.901Z,6.77
2023-02-24T00:34:32.104Z,6.23
2023-02-24T00:38:32.268Z,6.57
2023-02-24T00:42:32.444Z,6.43
2023-02-24T00:46:32.669Z,6.72
2023-02-24T00:50:32.843Z,6.76
2023-02-24T00:54:33.053Z,6.97
2023-02-24T00:58:33.227Z,6.93
2023-02-24T01:02:33.421Z,6.57
2023-02-24T01:06:33.631Z,5.89
2023-02-24T01:10:33.768Z,7.04
2023-02-24T01:14:33.919Z,6.71
2023-02-24T01:18:34.094Z,6.60
2023-02-24T01:22:34.255Z,6.64
2023-02-24T01:26:34.426Z,6.68
2023-02-24T01:30:34.608Z,6.48
2023-02-24T01:34:34.808Z,6.75
2023-02-24T01:38:34.984Z,5.81
2023-02-24T01:42:35.171Z,6.95
2023-02-24T01:46:35.412Z,6.95
2023-02-24T01:50:35.555Z,6.48
2023-02-24T01:54:35.766Z,6.54
2023-02-24T01:58:35.954Z,6.53
2023-02-24T02:02:36.218Z,5.89
2023-02-24T02:06:36.279Z,6.78
2023-02-24T02:10:36.523Z,6.59
2023-02-24T02:14:36.714Z,6.06
2023-02-24T02:18:36.924Z,6.22
2023-02-24T02:22:37.121Z,6.53
2023-02-24T02:26:37.354Z,6.40
2023-02-24T02:30:37.555Z,6.03
2023-02-24T02:34:37.777Z,6.63
2023-02-24T02:38:37.999Z,6.33
2023-02-24T02:42:38.188Z,6.52
2023-02-24T02:46:38.425Z,6.34
2023-02-24T02:50:38.608Z,6.24
2023-02-24T02:54:38.552Z,6.54
2023-02-24T02:58:38.540Z,6.70
2023-02-24T03:02:38.507Z,6.78
2023-02-24T03:06:38.489Z,6.65
2023-02-24T03:10:38.426Z,6.36
2023-02-24T03:14:38.407Z,6.57
2023-02-24T03:18:38.360Z,6.26
2023-02-24T03:22:38.316Z,6.50
2023-02-24T03:26:38.307Z,6.01
2023-02-24T03:30:38.306Z,6.65
2023-02-24T03:34:38.234Z,5.97
2023-02-24T03:38:38.182Z,6.27
2023-02-24T03:42:38.178Z,6.65
2023-02-24T03:46:38.142Z,5.92
2023-02-24T03:50:38.192Z,6.03
2023-02-24T03:54:38.099Z,6.46
2023-02-24T03:58:38.020Z,6.02
2023-02-24T04:02:38.035Z,6.53
2023-02-24T04:06:37.929Z,6.08
2023-02-24T04:10:37.882Z,6.30
2023-02-24T04:14:38.041Z,6.07
2023-02-24T04:18:40.159Z,6.25
2023-02-24T04:22:38.225Z,6.51
2023-02-24T04:26:38.223Z,5.67
2023-02-24T04:30:38.149Z,5.44
2023-02-24T04:34:38.089Z,6.29
2023-02-24T04:38:38.099Z,6.15
2023-02-24T04:42:38.028Z,6.59
2023-02-24T04:46:38.123Z,6.25
2023-02-24T04:50:37.969Z,6.22
2023-02-24T04:54:37.956Z,6.47
2023-02-24T04:58:37.925Z,7.25
2023-02-24T05:02:37.900Z,6.13
2023-02-24T05:06:37.897Z,5.54
2023-02-24T05:10:37.864Z,6.50
2023-02-24T05:14:37.810Z,5.95
2023-02-24T05:18:37.796Z,5.90
2023-02-24T05:22:37.747Z,5.86
2023-02-24T05:26:37.715Z,5.93
2023-02-24T05:30:37.756Z,6.15
2023-02-24T05:34:37.638Z,5.83
2023-02-24T05:38:37.628Z,6.04
2023-02-24T05:42:37.568Z,6.20
2023-02-24T05:46:37.759Z,5.70
2023-02-24T05:50:37.786Z,6.58
2023-02-24T05:54:37.960Z,6.53
2023-02-24T05:58:38.134Z,5.99
2023-02-24T06:02:38.299Z,6.41
2023-02-24T06:06:38.268Z,7.07
2023-02-24T06:10:38.210Z,5.70
2023-02-24T06:14:38.174Z,6.23
2023-02-24T06:18:38.144Z,6.00
2023-02-24T06:22:38.115Z,6.34
2023-02-24T06:26:38.089Z,6.26
2023-02-24T06:30:38.048Z,6.00
2023-02-24T06:34:38.020Z,5.88
2023-02-24T06:38:38.195Z,6.97
2023-02-24T06:42:37.908Z,6.55
2023-02-24T06:46:38.218Z,6.18
2023-02-24T06:50:40.548Z,6.38
2023-02-24T06:54:38.777Z,6.11
2023-02-24T06:58:38.157Z,6.21
2023-02-24T07:02:38.139Z,6.11
2023-02-24T07:06:38.127Z,5.53
2023-02-24T07:10:38.091Z,6.48
2023-02-24T07:14:38.023Z,5.65
2023-02-24T07:18:38.021Z,6.15
2023-02-24T07:22:37.953Z,5.99
2023-02-24T07:26:38.162Z,5.89
2023-02-24T07:30:38.276Z,5.82
2023-02-24T07:34:38.079Z,5.85
2023-02-24T07:38:38.205Z,5.94
2023-02-24T07:42:38.031Z,5.86
2023-02-24T07:46:38.007Z,5.86
2023-02-24T07:50:38.195Z,6.54
2023-02-24T07:54:38.248Z,6.67
2023-02-24T07:58:37.880Z,6.16
2023-02-24T08:02:37.844Z,6.43
2023-02-24T08:06:37.890Z,6.74
2023-02-24T08:10:37.765Z,6.70
2023-02-24T08:14:37.747Z,6.72
2023-02-24T08:18:37.786Z,6.62
2023-02-24T08:22:38.221Z,6.30
2023-02-24T08:26:38.302Z,6.15
2023-02-24T08:30:38.600Z,6.66
2023-02-24T08:34:38.547Z,6.30
2023-02-24T08:38:38.732Z,6.38
2023-02-24T08:42:39.259Z,6.50
2023-02-24T08:46:39.302Z,7.61
2023-02-24T08:50:38.815Z,7.02
2023-02-24T08:54:39.257Z,7.20
2023-02-24T08:58:38.743Z,7.34
2023-02-24T09:02:38.743Z,7.78
2023-02-24T09:06:38.689Z,6.73
2023-02-24T09:10:39.946Z,7.06
2023-02-24T09:14:38.651Z,6.90
2023-02-24T09:18:38.739Z,6.73
2023-02-24T09:22:38.539Z,6.27
2023-02-24T09:26:38.754Z,6.69
2023-02-24T09:30:38.763Z,7.21
2023-02-24T09:34:38.753Z,6.93
2023-02-24T09:38:38.757Z,7.66
2023-02-24T09:42:38.378Z,7.33
2023-02-24T09:46:38.809Z,8.34
2023-02-24T09:51:01.493Z,7.95
2023-02-24T09:54:39.776Z,10.71
2023-02-24T09:58:44.132Z,9.81
2023-02-24T10:02:39.457Z,8.94
2023-02-24T10:06:38.301Z,9.63
2023-02-24T10:10:38.276Z,7.64
2023-02-24T10:14:43.731Z,8.04
2023-02-24T10:18:39.220Z,7.93
2023-02-24T10:22:38.165Z,7.35
2023-02-24T10:26:39.202Z,7.49
2023-02-24T10:30:38.213Z,7.73
2023-02-24T10:34:38.064Z,7.64
2023-02-24T10:38:38.333Z,7.65
2023-02-24T10:42:38.312Z,7.90
2023-02-24T10:46:41.959Z,7.29
2023-02-24T10:50:43.974Z,7.88
2023-02-24T10:54:39.317Z,7.91
2023-02-24T10:58:37.897Z,7.50
2023-02-24T11:02:38.198Z,6.91
2023-02-24T11:06:38.326Z,6.60
2023-02-24T11:10:38.583Z,7.58
2023-02-24T11:14:38.689Z,7.73
2023-02-24T11:18:38.840Z,7.11
2023-02-24T11:22:39.026Z,6.76
2023-02-24T11:26:39.244Z,6.93
2023-02-24T11:30:39.524Z,6.95
2023-02-24T11:34:39.821Z,6.19
2023-02-24T11:38:39.612Z,7.77
2023-02-24T11:42:39.806Z,7.24
2023-02-24T11:46:40.016Z,7.46
2023-02-24T11:50:40.328Z,6.48
2023-02-24T11:54:40.104Z,7.03
2023-02-24T11:58:40.079Z,6.83
2023-02-24T12:02:40.077Z,6.95
2023-02-24T12:06:40.011Z,7.45
2023-02-24T12:10:39.968Z,5.96
2023-02-24T12:14:39.965Z,6.90
2023-02-24T12:18:39.907Z,6.10
2023-02-24T12:22:40.353Z,6.59
2023-02-24T12:26:39.822Z,6.85
2023-02-24T12:30:39.849Z,7.35
2023-02-24T12:34:39.820Z,5.66
2023-02-24T12:38:39.830Z,6.86
2023-02-24T12:42:39.880Z,6.83
2023-02-24T12:46:39.641Z,5.64
2023-02-24T12:50:39.634Z,5.73
2023-02-24T12:54:39.682Z,5.67
2023-02-24T12:58:39.857Z,6.55
2023-02-24T13:02:39.502Z,6.76
2023-02-24T13:06:39.470Z,6.82
2023-02-24T13:10:39.407Z,6.18
2023-02-24T13:14:39.386Z,7.03
2023-02-24T13:18:39.377Z,7.06
2023-02-24T13:22:39.331Z,7.01
2023-02-24T13:26:39.285Z,6.61
2023-02-24T13:30:39.292Z,7.18
2023-02-24T13:34:39.226Z,6.52
2023-02-24T13:38:39.195Z,6.94
2023-02-24T13:42:39.155Z,6.73
2023-02-24T13:46:39.129Z,6.12
2023-02-24T13:50:39.076Z,6.68
2023-02-24T13:54:39.049Z,5.97
2023-02-24T13:58:39.106Z,6.67
2023-02-24T14:02:39.119Z,6.12
2023-02-24T14:06:39.042Z,5.73
2023-02-24T14:10:38.982Z,6.08
2023-02-24T14:14:38.980Z,6.67
2023-02-24T14:18:38.920Z,5.60
2023-02-24T14:22:38.881Z,6.86
2023-02-24T14:26:38.821Z,5.66
2023-02-24T14:30:38.837Z,6.63
2023-02-24T14:34:38.793Z,6.05
2023-02-24T14:38:38.756Z,5.74
2023-02-24T14:42:38.672Z,6.09
2023-02-24T14:46:38.694Z,5.80
2023-02-24T14:50:38.634Z,6.35
2023-02-24T14:54:38.568Z,5.65
2023-02-24T14:58:38.558Z,5.74
2023-02-24T15:02:38.497Z,5.06
2023-02-24T15:06:38.454Z,5.44
2023-02-24T15:10:38.430Z,5.94
2023-02-24T15:14:38.377Z,5.58
2023-02-24T15:18:38.370Z,5.49
2023-02-24T15:22:38.349Z,6.00
2023-02-24T15:26:38.437Z,5.76
2023-02-24T15:30:38.813Z,5.10
2023-02-24T15:34:38.626Z,5.63
2023-02-24T15:38:38.710Z,5.72
2023-02-24T15:42:38.791Z,5.12
2023-02-24T15:46:38.942Z,5.83
2023-02-24T15:50:38.989Z,5.26
2023-02-24T15:54:39.054Z,6.24
2023-02-24T15:58:39.171Z,4.78
2023-02-24T16:02:39.321Z,5.58
2023-02-24T16:06:39.427Z,5.30
2023-02-24T16:10:39.563Z,5.84
2023-02-24T16:14:39.680Z,5.72
2023-02-24T16:18:39.829Z,5.56
2023-02-24T16:22:39.981Z,5.88
2023-02-24T16:26:40.140Z,5.44
2023-02-24T16:30:40.487Z,4.79
2023-02-24T16:34:40.517Z,4.83
2023-02-24T16:38:40.717Z,5.57
2023-02-24T16:42:40.919Z,5.45
2023-02-24T16:46:41.122Z,4.88
2023-02-24T16:50:41.293Z,5.19
2023-02-24T16:54:41.266Z,4.80
2023-02-24T16:58:41.263Z,5.00
2023-02-24T17:02:41.306Z,6.05
2023-02-24T17:06:41.172Z,5.17
2023-02-24T17:10:41.130Z,5.10
2023-02-24T17:14:41.121Z,5.17
2023-02-24T17:18:41.078Z,5.28
2023-02-24T17:22:41.059Z,5.26
2023-02-24T17:26:41.011Z,5.26
2023-02-24T17:30:41.060Z,5.06
2023-02-24T17:34:41.128Z,5.21
2023-02-24T17:38:41.087Z,5.09
2023-02-24T17:42:41.080Z,5.21
2023-02-24T17:46:41.035Z,4.68
2023-02-24T17:50:40.965Z,5.14
2023-02-24T17:54:40.947Z,5.53
2023-02-24T17:58:40.911Z,5.32
2023-02-24T18:02:41.063Z,6.17
2023-02-24T18:06:40.828Z,4.87
2023-02-24T18:10:40.813Z,5.90
2023-02-24T18:14:40.764Z,4.72
2023-02-24T18:18:40.951Z,5.01
2023-02-24T18:22:40.933Z,4.79
2023-02-24T18:26:40.905Z,5.34
2023-02-24T18:30:40.950Z,5.42
2023-02-24T18:34:40.821Z,5.58
2023-02-24T18:38:40.790Z,5.73
2023-02-24T18:42:40.765Z,5.82
2023-02-24T18:46:40.810Z,4.74
2023-02-24T18:50:40.721Z,5.50
2023-02-24T18:54:40.646Z,6.34
2023-02-24T18:58:40.635Z,5.72
2023-02-24T19:02:40.601Z,5.26
2023-02-24T19:06:40.579Z,5.61
2023-02-24T19:10:40.513Z,5.26
2023-02-24T19:14:40.467Z,5.90
2023-02-24T19:18:40.432Z,6.48
2023-02-24T19:22:40.426Z,4.87
2023-02-24T19:26:40.386Z,5.87
2023-02-24T19:30:40.337Z,5.68
2023-02-24T19:34:40.288Z,5.32
2023-02-24T19:38:40.257Z,6.47
2023-02-24T19:42:40.276Z,5.96
2023-02-24T19:46:40.214Z,5.61
2023-02-24T19:50:40.177Z,5.65
2023-02-24T19:54:40.145Z,5.64
2023-02-24T19:58:40.094Z,5.14
2023-02-24T20:02:40.044Z,4.87
2023-02-24T20:06:40.039Z,5.39
2023-02-24T20:10:39.987Z,5.43
2023-02-24T20:14:39.966Z,5.71
2023-02-24T20:18:39.946Z,5.65
2023-02-24T20:22:39.869Z,5.83
2023-02-24T20:26:39.850Z,5.56
2023-02-24T20:30:39.873Z,5.81
2023-02-24T20:34:39.823Z,5.71
2023-02-24T20:38:39.792Z,5.87
2023-02-24T20:42:39.851Z,6.14
2023-02-24T20:46:39.856Z,5.91
2023-02-24T20:50:39.912Z,6.14
2023-02-24T20:54:39.950Z,5.91
2023-02-24T20:58:39.925Z,6.01
2023-02-24T21:02:39.970Z,5.85
2023-02-24T21:06:39.992Z,6.05
2023-02-24T21:10:40.029Z,5.42
2023-02-24T21:14:40.071Z,6.28
2023-02-24T21:18:40.106Z,5.74
2023-02-24T21:22:40.186Z,5.94
2023-02-24T21:26:40.192Z,6.03
2023-02-24T21:30:40.307Z,5.69
2023-02-24T21:34:40.314Z,6.47
2023-02-24T21:38:40.385Z,5.92
2023-02-24T21:42:40.439Z,5.19
2023-02-24T21:46:40.509Z,4.83
2023-02-24T21:50:40.538Z,5.68
2023-02-24T21:54:40.595Z,6.09
2023-02-24T21:58:40.662Z,6.07
2023-02-24T22:02:40.664Z,5.96
2023-02-24T22:06:40.759Z,5.25
2023-02-24T22:10:40.807Z,5.64
2023-02-24T22:14:40.845Z,5.76
2023-02-24T22:18:40.903Z,6.31
2023-02-24T22:22:40.955Z,5.71
2023-02-24T22:26:40.966Z,6.22
2023-02-24T22:30:41.049Z,5.94
2023-02-24T22:34:41.089Z,5.33
2023-02-24T22:38:41.185Z,5.69
2023-02-24T22:42:41.201Z,5.96
2023-02-24T22:46:41.290Z,5.47
2023-02-24T22:50:41.359Z,5.84
2023-02-24T22:54:41.404Z,5.73
2023-02-24T22:58:41.492Z,6.06
2023-02-24T23:02:41.568Z,5.31
2023-02-24T23:06:41.652Z,5.66
2023-02-24T23:10:41.734Z,6.17
2023-02-24T23:14:41.798Z,5.05
2023-02-24T23:18:41.903Z,6.40
2023-02-24T23:22:41.979Z,5.85
2023-02-24T23:26:42.041Z,5.26
2023-02-24T23:30:42.162Z,5.35
2023-02-24T23:34:42.246Z,5.99
2023-02-24T23:38:42.391Z,5.40
2023-02-24T23:42:42.469Z,5.36
2023-02-24T23:46:42.573Z,5.63
2023-02-24T23:50:42.691Z,5.61
2023-02-24T23:54:42.763Z,5.24
2023-02-24T23:58:42.901Z,4.77
